Beaver, Oklahoma
Current Conditions -  °F | °C
As of 8:35 PM on Saturday 25 Oct 2014 (Local Time) from KLBL Reporting Station
Clear Clear  
Wind Chill: 70°   Ceiling: Unl
Heat Index: 70°   Visibility: 10mi
Dew Point: 45°   Wind: 12mph
Humidity: 40%   Direction: 170°S
Pressure: 30"   Gusts: NA
Location:  36.82°N, 100.52°W
Report Text: KLBL 260135Z AUTO 17010KT 10SM CLR 21/07 A3000 RMK AO1
Loading
Personal Weather Stations






























Interactive Weather Map New forecast layout! Learn more

10-Day Weather Forecast

Advertisements
Track Severe Weather on mobile